Time;durP1;ratioP1;P1;durP2;ratioP2;P2;SDS_P1;SDS_P2;PMS_P1;PMS_P2;Temp;Humidity;BMP_temperature;BMP_pressure;BME280_temperature;BME280_humidity;BME280_pressure;Samples;Min_cycle;Max_cycle;Signal;HPM_P1;HPM_P2
2022/08/19 00:03:08;;;;;;;2.30;1.00;;;;;;;;;;12595936;28;20044;-74
2022/08/19 00:09:11;;;;;;;2.55;1.58;;;;;;;;;;12578217;28;20033;-74
2022/08/19 00:15:15;;;;;;;2.58;0.88;;;;;;;;;;12596108;28;20036;-75
2022/08/19 00:21:17;;;;;;;1.88;0.90;;;;;;;;;;12595669;28;20040;-75
2022/08/19 00:27:19;;;;;;;;;;;;;;;;;;12595525;28;20036;-75
2022/08/19 00:33:21;;;;;;;1.83;0.80;;;;;;;;;;12596044;28;19908;-75
2022/08/19 00:39:22;;;;;;;2.30;0.93;;;;;;;;;;12560431;28;20040;-75
2022/08/19 00:45:35;;;;;;;3.05;0.85;;;;;;;;;;12577022;28;20504;-75
2022/08/19 00:51:37;;;;;;;1.30;0.80;;;;;;;;;;12594594;28;20040;-75
2022/08/19 00:57:40;;;;;;;1.83;0.88;;;;;;;;;;12576358;28;20502;-74
2022/08/19 01:03:42;;;;;;;1.42;0.80;;;;;;;;;;12594084;28;20412;-75
2022/08/19 01:09:44;;;;;;;4.78;1.00;;;;;;;;;;12594124;28;20032;-75
2022/08/19 01:15:49;;;;;;;4.00;1.50;;;;;;;;;;12575680;28;20032;-75
2022/08/19 01:22:06;;;;;;;3.00;1.30;;;;;;;;;;12575596;28;20397;-75
2022/08/19 01:28:08;;;;;;;2.67;1.30;;;;;;;;;;12576020;28;20063;-75
2022/08/19 01:34:10;;;;;;;2.55;1.00;;;;;;;;;;12593809;28;20496;-76
2022/08/19 01:40:12;;;;;;;2.17;0.98;;;;;;;;;;12574992;28;20041;-75
2022/08/19 01:46:14;;;;;;;3.45;1.20;;;;;;;;;;12593226;28;20498;-75
2022/08/19 01:52:15;;;;;;;2.03;0.82;;;;;;;;;;12575179;28;20043;-75
2022/08/19 01:58:20;;;;;;;1.85;0.80;;;;;;;;;;12575136;28;20044;-75
2022/08/19 02:04:23;;;;;;;4.65;1.52;;;;;;;;;;12593042;28;20029;-75
2022/08/19 02:10:25;;;;;;;2.95;1.20;;;;;;;;;;12592711;28;20044;-75
2022/08/19 02:16:26;;;;;;;;;;;;;;;;;;12593046;28;20492;-75
2022/08/19 02:22:28;;;;;;;3.28;1.40;;;;;;;;;;12592213;28;19925;-75
2022/08/19 02:28:29;;;;;;;2.50;1.25;;;;;;;;;;12580039;28;20044;-75
2022/08/19 02:34:31;;;;;;;2.45;1.02;;;;;;;;;;12583093;28;20032;-75
2022/08/19 02:40:36;;;;;;;2.95;0.80;;;;;;;;;;12582781;28;20044;-75
2022/08/19 02:46:38;;;;;;;4.80;1.80;;;;;;;;;;12565742;28;20068;-75
2022/08/19 02:52:40;;;;;;;5.22;2.05;;;;;;;;;;12582534;28;20473;-75
2022/08/19 02:58:42;;;;;;;3.03;1.65;;;;;;;;;;12600236;28;20056;-75
2022/08/19 03:04:44;;;;;;;5.40;1.83;;;;;;;;;;12582053;28;20040;-75
2022/08/19 03:10:47;;;;;;;3.33;1.27;;;;;;;;;;12581403;28;20048;-75
2022/08/19 03:16:51;;;;;;;4.70;1.60;;;;;;;;;;12598797;28;20375;-75
2022/08/19 03:22:52;;;;;;;2.20;1.10;;;;;;;;;;12598742;28;20045;-76
2022/08/19 03:28:54;;;;;;;2.70;1.30;;;;;;;;;;12598407;28;20155;-76
2022/08/19 03:34:56;;;;;;;1.60;0.93;;;;;;;;;;12598015;28;20037;-75
2022/08/19 03:40:59;;;;;;;1.75;0.70;;;;;;;;;;12597735;28;20067;-75
2022/08/19 03:47:01;;;;;;;1.20;0.80;;;;;;;;;;12597548;28;20025;-75
2022/08/19 03:53:03;;;;;;;1.20;0.77;;;;;;;;;;12578996;28;20033;-76
2022/08/19 03:59:06;;;;;;;1.77;0.95;;;;;;;;;;12597543;28;20048;-75
2022/08/19 04:05:08;;;;;;;0.82;0.63;;;;;;;;;;12596587;28;20496;-75
2022/08/19 04:11:10;;;;;;;1.80;0.57;;;;;;;;;;12596907;28;20037;-75
2022/08/19 04:17:13;;;;;;;2.10;0.80;;;;;;;;;;12595731;28;20028;-75
2022/08/19 04:23:15;;;;;;;0.82;0.60;;;;;;;;;;12577828;28;20053;-75
2022/08/19 04:29:21;;;;;;;1.20;0.63;;;;;;;;;;12561143;28;20060;-75
2022/08/19 04:35:23;;;;;;;1.33;0.60;;;;;;;;;;12577167;28;20036;-76
2022/08/19 04:47:46;;;;;;;1.33;0.60;;;;;;;;;;12594421;28;20043;-75
2022/08/19 04:53:47;;;;;;;2.30;1.10;;;;;;;;;;12576970;28;20032;-76
2022/08/19 04:59:49;;;;;;;1.40;0.73;;;;;;;;;;12577161;28;20413;-74
2022/08/19 05:05:51;;;;;;;1.80;0.80;;;;;;;;;;12593964;28;20405;-74
2022/08/19 05:11:53;;;;;;;1.98;0.68;;;;;;;;;;12594337;28;20037;-75
2022/08/19 05:24:20;;;;;;;1.88;0.50;;;;;;;;;;12567271;28;20060;-75
2022/08/19 05:30:22;;;;;;;1.65;0.50;;;;;;;;;;12593886;28;20057;-75
2022/08/19 05:36:24;;;;;;;2.05;0.90;;;;;;;;;;12594104;28;20039;-74
2022/08/19 05:42:26;;;;;;;1.10;0.55;;;;;;;;;;12593875;28;20052;-74
2022/08/19 05:48:28;;;;;;;0.93;0.40;;;;;;;;;;12593010;28;20039;-75
2022/08/19 05:54:29;;;;;;;1.85;0.60;;;;;;;;;;12558589;28;20040;-74
2022/08/19 06:00:31;;;;;;;1.58;0.50;;;;;;;;;;12576036;28;20482;-74
2022/08/19 06:06:34;;;;;;;1.55;0.73;;;;;;;;;;12602629;28;20036;-74
2022/08/19 06:12:36;;;;;;;1.83;0.88;;;;;;;;;;12602160;28;20389;-75
2022/08/19 06:18:38;;;;;;;;;;;;;;;;;;12584049;28;20036;-75
2022/08/19 06:24:39;;;;;;;2.07;0.60;;;;;;;;;;12601602;28;19908;-75
2022/08/19 06:30:41;;;;;;;1.15;0.47;;;;;;;;;;12601480;28;20071;-75
2022/08/19 06:36:44;;;;;;;0.52;0.20;;;;;;;;;;12566228;28;20036;-75
2022/08/19 06:42:46;;;;;;;1.70;0.70;;;;;;;;;;12600762;28;20045;-75
2022/08/19 06:48:48;;;;;;;1.65;0.50;;;;;;;;;;12592226;28;20393;-74
2022/08/19 06:54:50;;;;;;;;;;;;;;;;;;12582572;28;20025;-74
2022/08/19 07:00:51;;;;;;;1.50;0.70;;;;;;;;;;12581934;28;19928;-74
2022/08/19 07:07:01;;;;;;;0.90;0.50;;;;;;;;;;12581652;28;20382;-75
2022/08/19 07:13:03;;;;;;;2.63;0.68;;;;;;;;;;12599165;28;20040;-74
2022/08/19 07:19:05;;;;;;;3.30;0.90;;;;;;;;;;12598932;28;20425;-75
2022/08/19 07:25:08;;;;;;;1.58;0.70;;;;;;;;;;12580844;28;20378;-75
2022/08/19 07:31:12;;;;;;;2.33;0.65;;;;;;;;;;12599344;28;20379;-75
2022/08/19 07:37:14;;;;;;;1.00;0.70;;;;;;;;;;12599725;28;20024;-75
2022/08/19 07:43:17;;;;;;;1.20;0.77;;;;;;;;;;12597657;28;20048;-75
2022/08/19 07:49:20;;;;;;;1.33;0.60;;;;;;;;;;12579822;28;20374;-74
2022/08/19 07:55:24;;;;;;;1.17;0.50;;;;;;;;;;12562940;28;20044;-74
2022/08/19 08:01:27;;;;;;;0.95;0.40;;;;;;;;;;12597559;28;20066;-75
2022/08/19 08:13:49;;;;;;;1.77;0.60;;;;;;;;;;12596475;28;20032;-75
2022/08/19 08:19:51;;;;;;;0.60;0.38;;;;;;;;;;12595593;28;20036;-75
2022/08/19 08:25:54;;;;;;;1.23;0.40;;;;;;;;;;12595094;28;20150;-75
2022/08/19 08:31:57;;;;;;;1.52;0.60;;;;;;;;;;12595525;28;20131;-75
2022/08/19 08:37:59;;;;;;;0.38;0.38;;;;;;;;;;12577200;28;20031;-74
2022/08/19 08:44:04;;;;;;;1.60;0.70;;;;;;;;;;12577085;28;20044;-74
2022/08/19 08:50:08;;;;;;;2.33;0.93;;;;;;;;;;12594584;28;20478;-74
2022/08/19 08:56:12;;;;;;;1.00;0.57;;;;;;;;;;12560005;28;20036;-74
2022/08/19 09:02:15;;;;;;;1.60;0.52;;;;;;;;;;12595085;28;20048;-75
2022/08/19 09:08:35;;;;;;;1.10;0.32;;;;;;;;;;12593778;28;20037;-74
2022/08/19 09:14:42;;;;;;;1.55;0.63;;;;;;;;;;12575954;28;20036;-74
2022/08/19 09:20:44;;;;;;;2.03;0.50;;;;;;;;;;12575714;28;20048;-73
2022/08/19 09:26:46;;;;;;;1.35;0.63;;;;;;;;;;12576036;28;20044;-75
2022/08/19 09:32:48;;;;;;;1.60;0.60;;;;;;;;;;12585854;28;20516;-75
2022/08/19 09:38:50;;;;;;;1.38;0.63;;;;;;;;;;12583824;28;20028;-74
2022/08/19 09:44:51;;;;;;;;;;;;;;;;;;12586027;28;20402;-74
2022/08/19 09:50:53;;;;;;;1.57;0.60;;;;;;;;;;12584376;28;20301;-75
2022/08/19 09:56:55;;;;;;;1.85;0.65;;;;;;;;;;12566720;28;20040;-75
2022/08/19 10:02:57;;;;;;;0.98;0.40;;;;;;;;;;12583182;28;20059;-75
2022/08/19 10:08:59;;;;;;;1.65;0.43;;;;;;;;;;12601454;28;20040;-75
2022/08/19 10:15:01;;;;;;;0.93;0.60;;;;;;;;;;12600366;28;20032;-75
2022/08/19 10:21:08;;;;;;;4.18;1.20;;;;;;;;;;12586341;28;20029;-74
2022/08/19 10:27:10;;;;;;;0.85;0.40;;;;;;;;;;12581893;28;20028;-74
2022/08/19 10:33:12;;;;;;;1.92;0.60;;;;;;;;;;12600318;28;20049;-75
2022/08/19 10:39:14;;;;;;;1.33;0.70;;;;;;;;;;12581846;28;20039;-75
2022/08/19 10:45:16;;;;;;;1.25;0.60;;;;;;;;;;12599307;28;20029;-77
2022/08/19 10:57:40;;;;;;;0.87;0.43;;;;;;;;;;12599181;28;20055;-74
2022/08/19 11:03:45;;;;;;;2.60;0.60;;;;;;;;;;12580389;28;20498;-74
2022/08/19 11:09:46;;;;;;;1.42;0.60;;;;;;;;;;12598155;28;20032;-74
2022/08/19 11:15:48;;;;;;;;;;;;;;;;;;12597987;28;20032;-74
2022/08/19 11:21:51;;;;;;;0.98;0.40;;;;;;;;;;12562974;28;19931;-75
2022/08/19 11:27:53;;;;;;;2.28;0.70;;;;;;;;;;12578986;28;20072;-75
2022/08/19 11:33:56;;;;;;;1.55;0.45;;;;;;;;;;12579264;28;20151;-75
2022/08/19 11:39:59;;;;;;;1.00;0.45;;;;;;;;;;12597992;28;20039;-75
2022/08/19 11:46:06;;;;;;;1.40;0.30;;;;;;;;;;12579770;28;20028;-74
2022/08/19 11:52:08;;;;;;;1.00;0.30;;;;;;;;;;12579204;28;20051;-75
2022/08/19 11:58:10;;;;;;;1.85;0.47;;;;;;;;;;12597481;28;20033;-75
2022/08/19 12:04:12;;;;;;;0.85;0.30;;;;;;;;;;12596469;28;20040;-75
2022/08/19 12:10:14;;;;;;;1.48;0.30;;;;;;;;;;12596266;28;20032;-75
2022/08/19 12:16:24;;;;;;;0.25;0.20;;;;;;;;;;12596176;28;20505;-75
2022/08/19 12:22:26;;;;;;;1.40;0.25;;;;;;;;;;12595476;28;20052;-76
2022/08/19 12:28:28;;;;;;;1.08;0.32;;;;;;;;;;12577380;28;20414;-74
2022/08/19 12:34:30;;;;;;;0.85;0.55;;;;;;;;;;12577260;28;20031;-75
2022/08/19 12:40:32;;;;;;;1.05;0.45;;;;;;;;;;12576721;28;20036;-75
2022/08/19 12:46:33;;;;;;;0.57;0.43;;;;;;;;;;12594765;28;20036;-74
2022/08/19 12:52:36;;;;;;;0.80;0.60;;;;;;;;;;12560204;28;20044;-75
2022/08/19 12:58:38;;;;;;;1.58;0.60;;;;;;;;;;12577189;28;20036;-75
2022/08/19 13:04:40;;;;;;;0.57;0.30;;;;;;;;;;12595125;28;20043;-74
2022/08/19 13:10:42;;;;;;;4.25;1.35;;;;;;;;;;12575963;28;20036;-75
2022/08/19 13:16:44;;;;;;;2.72;0.85;;;;;;;;;;12575989;28;20032;-75
2022/08/19 13:22:49;;;;;;;1.33;0.90;;;;;;;;;;12560462;28;20045;-74
2022/08/19 13:35:12;;;;;;;0.70;0.40;;;;;;;;;;12594230;28;20071;-74
2022/08/19 13:41:14;;;;;;;0.77;0.50;;;;;;;;;;12575552;28;20048;-74
2022/08/19 13:47:16;;;;;;;1.13;0.50;;;;;;;;;;12593142;28;20037;-74
2022/08/19 13:53:18;;;;;;;0.75;0.40;;;;;;;;;;12575434;28;20032;-75
2022/08/19 13:59:19;;;;;;;1.90;0.50;;;;;;;;;;12593628;28;20036;-74
2022/08/19 14:05:22;;;;;;;1.60;0.60;;;;;;;;;;12592698;28;20036;-74
2022/08/19 14:11:23;;;;;;;1.33;0.40;;;;;;;;;;12592582;28;20028;-73
2022/08/19 14:17:25;;;;;;;0.47;0.32;;;;;;;;;;12574470;28;20028;-74
2022/08/19 14:23:27;;;;;;;0.60;0.30;;;;;;;;;;12578035;28;20036;-74
2022/08/19 14:29:29;;;;;;;1.60;0.40;;;;;;;;;;12566847;28;20053;-74
2022/08/19 14:35:34;;;;;;;1.15;0.40;;;;;;;;;;12582873;28;20055;-74
2022/08/19 14:41:36;;;;;;;1.42;0.40;;;;;;;;;;12600554;28;20044;-74
2022/08/19 14:47:38;;;;;;;1.63;0.35;;;;;;;;;;12582059;28;20032;-74
2022/08/19 14:53:40;;;;;;;0.45;0.30;;;;;;;;;;12582005;28;20036;-74
2022/08/19 14:59:43;;;;;;;0.63;0.15;;;;;;;;;;12582854;28;20067;-75
2022/08/19 15:05:45;;;;;;;0.20;0.20;;;;;;;;;;12581795;28;20037;-75
2022/08/19 15:11:49;;;;;;;0.40;0.20;;;;;;;;;;12599685;28;20028;-75
2022/08/19 15:17:51;;;;;;;0.40;0.20;;;;;;;;;;12581216;28;20044;-75
2022/08/19 15:23:53;;;;;;;0.85;0.52;;;;;;;;;;12598609;28;20515;-75
2022/08/19 15:29:56;;;;;;;1.20;0.30;;;;;;;;;;12598610;28;20508;-75
2022/08/19 15:35:59;;;;;;;1.95;0.85;;;;;;;;;;12563696;28;20052;-75
2022/08/19 15:42:01;;;;;;;3.08;0.75;;;;;;;;;;12598152;28;20045;-75
2022/08/19 15:48:03;;;;;;;2.60;0.98;;;;;;;;;;12597736;28;20039;-75
2022/08/19 15:54:07;;;;;;;2.88;0.88;;;;;;;;;;12563090;28;20032;-75
2022/08/19 16:06:30;;;;;;;1.20;0.70;;;;;;;;;;12596708;28;20044;-75
2022/08/19 16:12:31;;;;;;;1.83;0.50;;;;;;;;;;12596644;28;20526;-75
2022/08/19 16:18:37;;;;;;;1.83;1.05;;;;;;;;;;12561811;28;20047;-74
2022/08/19 16:24:38;;;;;;;1.98;0.80;;;;;;;;;;12595737;28;20409;-74
2022/08/19 16:30:41;;;;;;;2.15;0.73;;;;;;;;;;12578183;28;20049;-75
2022/08/19 16:36:43;;;;;;;1.15;0.47;;;;;;;;;;12577588;28;20039;-74
2022/08/19 16:42:45;;;;;;;2.80;0.95;;;;;;;;;;12595827;28;20040;-74
2022/08/19 16:48:47;;;;;;;1.92;0.77;;;;;;;;;;12594398;28;20051;-74
2022/08/19 16:54:49;;;;;;;2.58;1.13;;;;;;;;;;12576944;28;20097;-74
2022/08/19 17:00:51;;;;;;;2.30;0.90;;;;;;;;;;12576871;28;20393;-74
2022/08/19 17:06:54;;;;;;;3.17;0.80;;;;;;;;;;12594299;28;20033;-73
2022/08/19 17:12:55;;;;;;;3.83;0.73;;;;;;;;;;12594150;28;20495;-73
2022/08/19 17:18:58;;;;;;;1.73;0.80;;;;;;;;;;12594851;28;20028;-74
2022/08/19 17:25:00;;;;;;;1.73;0.60;;;;;;;;;;12593943;28;20049;-74
2022/08/19 17:31:01;;;;;;;1.30;0.70;;;;;;;;;;12594038;28;20048;-73
2022/08/19 17:37:03;;;;;;;0.77;0.50;;;;;;;;;;12575830;28;20040;-73
2022/08/19 17:43:06;;;;;;;1.20;0.93;;;;;;;;;;12593073;28;20115;-74
2022/08/19 17:49:08;;;;;;;2.05;0.82;;;;;;;;;;12593294;28;20028;-73
2022/08/19 17:55:10;;;;;;;1.60;0.88;;;;;;;;;;12575362;28;20040;-73
2022/08/19 18:01:13;;;;;;;3.40;1.02;;;;;;;;;;12603933;28;20045;-73
2022/08/19 18:07:15;;;;;;;2.72;1.27;;;;;;;;;;12584338;28;20040;-73
2022/08/19 18:13:17;;;;;;;1.58;0.85;;;;;;;;;;12602386;28;20075;-73
2022/08/19 18:19:20;;;;;;;1.65;0.70;;;;;;;;;;12583939;28;20500;-73
2022/08/19 18:25:24;;;;;;;2.78;0.95;;;;;;;;;;12583524;28;20416;-74
2022/08/19 18:31:27;;;;;;;1.92;0.73;;;;;;;;;;12583832;28;20128;-73
2022/08/19 18:37:29;;;;;;;1.85;0.98;;;;;;;;;;12583046;28;20041;-73
2022/08/19 18:49:51;;;;;;;2.15;1.00;;;;;;;;;;12582615;28;19908;-73
2022/08/19 18:55:53;;;;;;;;;;;;;;;;;;12566428;28;20041;-74
2022/08/19 19:01:55;;;;;;;;;;;;;;;;;;12601300;28;20388;-74
2022/08/19 19:07:59;;;;;;;1.42;0.70;;;;;;;;;;12599181;28;19916;-74
2022/08/19 19:14:02;;;;;;;1.83;0.68;;;;;;;;;;12599627;28;20036;-74
2022/08/19 19:20:04;;;;;;;2.85;0.90;;;;;;;;;;12581352;28;20405;-74
2022/08/19 19:26:09;;;;;;;2.92;1.40;;;;;;;;;;12599128;28;20028;-74
2022/08/19 19:32:15;;;;;;;2.15;1.25;;;;;;;;;;12598701;28;20056;-74
2022/08/19 19:38:17;;;;;;;3.10;1.95;;;;;;;;;;12598242;28;20037;-74
2022/08/19 19:44:20;;;;;;;2.40;1.90;;;;;;;;;;12563716;28;20036;-74
2022/08/19 19:50:21;;;;;;;2.13;1.88;;;;;;;;;;12579782;28;20031;-74
2022/08/19 19:56:23;;;;;;;2.33;1.30;;;;;;;;;;12597547;28;20413;-73
2022/08/19 20:02:25;;;;;;;3.08;1.63;;;;;;;;;;12579799;28;20033;-74
2022/08/19 20:14:47;;;;;;;2.17;1.50;;;;;;;;;;12596420;28;19913;-74
2022/08/19 20:20:50;;;;;;;2.55;1.50;;;;;;;;;;12595249;28;20041;-73
2022/08/19 20:26:52;;;;;;;2.38;1.33;;;;;;;;;;12578043;28;20033;-74
2022/08/19 20:32:55;;;;;;;3.05;1.60;;;;;;;;;;12596005;28;20056;-74
2022/08/19 20:38:57;;;;;;;2.97;1.30;;;;;;;;;;12577794;28;20028;-74
2022/08/19 20:44:58;;;;;;;3.17;1.67;;;;;;;;;;12577050;28;20045;-74
2022/08/19 20:51:01;;;;;;;1.80;1.50;;;;;;;;;;12577437;28;20033;-74
2022/08/19 20:57:04;;;;;;;;;;;;;;;;;;12577489;28;20035;-74
2022/08/19 21:03:05;;;;;;;2.45;1.27;;;;;;;;;;12560173;28;19920;-75
2022/08/19 21:09:08;;;;;;;3.20;2.40;;;;;;;;;;12560203;28;20032;-74
2022/08/19 21:15:10;;;;;;;2.58;1.70;;;;;;;;;;12577068;28;20028;-74
2022/08/19 21:21:11;;;;;;;2.65;2.03;;;;;;;;;;12594051;28;20049;-74
2022/08/19 21:27:13;;;;;;;2.55;2.00;;;;;;;;;;12594077;28;20032;-74
2022/08/19 21:33:15;;;;;;;3.50;2.50;;;;;;;;;;12575422;28;20120;-74
2022/08/19 21:39:17;;;;;;;2.55;1.65;;;;;;;;;;12559066;28;20414;-74
2022/08/19 21:45:19;;;;;;;;;;;;;;;;;;12558996;28;20041;-74
2022/08/19 21:51:21;;;;;;;;;;;;;;;;;;12593913;28;19908;-73
2022/08/19 21:57:23;;;;;;;1.85;1.75;;;;;;;;;;12593028;28;19908;-73
2022/08/19 22:03:25;;;;;;;2.95;2.15;;;;;;;;;;12574851;28;20485;-73
2022/08/19 22:09:26;;;;;;;1.67;1.50;;;;;;;;;;12574774;28;20155;-73
2022/08/19 22:15:28;;;;;;;2.08;1.58;;;;;;;;;;12592476;28;20043;-74
2022/08/19 22:21:30;;;;;;;3.15;2.85;;;;;;;;;;12574334;28;20047;-74
2022/08/19 22:27:32;;;;;;;2.53;1.80;;;;;;;;;;12574108;28;20029;-74
2022/08/19 22:33:33;;;;;;;2.22;1.90;;;;;;;;;;12592330;28;20057;-74
2022/08/19 22:39:35;;;;;;;2.60;2.38;;;;;;;;;;12574362;28;20028;-74
2022/08/19 22:45:37;;;;;;;2.83;2.40;;;;;;;;;;12597300;28;20063;-73
2022/08/19 22:57:59;;;;;;;1.88;1.77;;;;;;;;;;12600449;28;20469;-74
2022/08/19 23:04:01;;;;;;;2.22;1.90;;;;;;;;;;12599888;28;20048;-74
2022/08/19 23:10:08;;;;;;;5.03;2.38;;;;;;;;;;12599819;28;20039;-74
2022/08/19 23:16:10;;;;;;;1.77;1.67;;;;;;;;;;12599609;28;20524;-74
2022/08/19 23:22:15;;;;;;;2.00;1.80;;;;;;;;;;12599391;28;20047;-74
2022/08/19 23:34:37;;;;;;;2.17;1.98;;;;;;;;;;12580761;28;20037;-73
2022/08/19 23:40:39;;;;;;;2.47;1.63;;;;;;;;;;12580061;28;20036;-73
2022/08/19 23:46:41;;;;;;;2.03;1.60;;;;;;;;;;12597700;28;20027;-73
2022/08/19 23:52:48;;;;;;;2.22;2.08;;;;;;;;;;12597152;28;20029;-73
2022/08/19 23:58:49;;;;;;;4.07;3.72;;;;;;;;;;12579670;28;20035;-74
